Aviation Digital Data Service (ADDS)

Output produced by METARs form (1656 UTC 25 July 2017)
found at http://aviationweather.gov/adds/metars/
 
KFRG 251653Z 02005KT 10SM OVC017 19/15 A3011 RMK AO2 SLP194 T01940150
KISP 251542Z 2516/2612 04009KT P6SM OVC013 
     FM251900 06008KT P6SM OVC022 
     FM252100 05008KT P6SM BKN035 
     FM260400 05005KT P6SM SCT050 
     FM261000 04006KT P6SM SCT200
       
KJFK 251651Z 04008KT 10SM OVC020 21/17 A3011 RMK AO2 SLP195 T02060167
KJFK 251542Z 2516/2618 06009KT P6SM OVC025 
     FM252200 06009KT P6SM BKN040 
     FM260500 05007KT P6SM SCT040 
     FM261400 06006KT P6SM SCT200 
     FM261700 12008KT P6SM SCT200
       
KBDR 251652Z 08005KT 10SM -RA OVC020 19/14 A3011 RMK AO2 RAE01B28 SLP197 P0000 T01890139
KBDR 251542Z 2516/2612 05008KT P6SM OVC015 
     FM251700 06008KT P6SM BKN025 
     FM251900 06007KT P6SM BKN035 
     FM260400 06006KT P6SM SCT045 
     FM261000 03005KT P6SM SCT200